Terminal Aerodrome Forecast
Issued by NWS

Home | Current Version | Previous Version | Text Only | Print | Product List | Glossary On
Versions: 1 2 3 4 5 6 7 8 9 10 11 12 13
000
FTUS44 KCRP 241121
TAFLRD
TAF
KLRD 241121Z 2412/2512 09005KT P6SM SCT016 SCT250
      TEMPO 2412/2415 BKN016
     FM241500 14007KT P6SM BKN028
     FM241900 11012KT P6SM SCT050
     FM250100 12014KT P6SM SCT030 SCT250
     FM250800 12008KT P6SM SCT015 BKN250
      TEMPO 2508/2512 BKN015=

USA.gov is the U.S. government's official web portal to all federal, state and local government web resources and services.